Time;durP1;ratioP1;P1;durP2;ratioP2;P2;SDS_P1;SDS_P2;PMS_P1;PMS_P2;Temp;Humidity;BMP_temperature;BMP_pressure;BME280_temperature;BME280_humidity;BME280_pressure;Samples;Min_cycle;Max_cycle;Signal;HPM_P1;HPM_P2
2022/08/23 00:01:40;;;;;;;3.47;1.85;;;;;;;;;;8363349;28;20306;-57
2022/08/23 00:05:41;;;;;;;4.45;1.73;;;;;;;;;;8363475;28;20024;-57
2022/08/23 00:09:41;;;;;;;3.53;1.60;;;;;;;;;;8362911;28;20028;-57
2022/08/23 00:13:42;;;;;;;3.73;1.63;;;;;;;;;;8360142;28;20032;-59
2022/08/23 00:17:42;;;;;;;5.85;1.88;;;;;;;;;;8363441;28;20328;-57
2022/08/23 00:21:44;;;;;;;8.98;1.90;;;;;;;;;;8361440;28;20312;-57
2022/08/23 00:25:44;;;;;;;2.75;2.30;;;;;;;;;;8365415;28;20032;-58
2022/08/23 00:29:48;;;;;;;6.90;2.03;;;;;;;;;;8362869;28;20021;-58
2022/08/23 00:33:49;;;;;;;3.60;2.05;;;;;;;;;;8360539;28;20049;-57
2022/08/23 00:37:49;;;;;;;3.53;2.05;;;;;;;;;;8364363;28;20032;-57
2022/08/23 00:41:49;;;;;;;6.50;2.60;;;;;;;;;;8360963;28;20123;-57
2022/08/23 00:50:35;;;;;;;3.80;2.15;;;;;;;;;;8364428;28;20862;-57
2022/08/23 00:54:37;;;;;;;5.15;2.15;;;;;;;;;;8363961;28;20108;-58
2022/08/23 00:58:39;;;;;;;3.78;2.20;;;;;;;;;;8363583;28;20028;-58
2022/08/23 01:02:40;;;;;;;4.47;2.30;;;;;;;;;;8363246;28;20060;-57
2022/08/23 01:06:43;;;;;;;3.55;2.30;;;;;;;;;;8363281;28;20032;-57
2022/08/23 01:10:50;;;;;;;4.07;2.40;;;;;;;;;;8360775;28;20029;-57
2022/08/23 01:14:50;;;;;;;4.57;2.40;;;;;;;;;;8360236;28;20028;-57
2022/08/23 01:18:50;;;;;;;4.25;2.15;;;;;;;;;;8359946;28;20075;-57
2022/08/23 01:22:50;;;;;;;3.38;1.92;;;;;;;;;;8359399;28;20081;-57
2022/08/23 01:26:51;;;;;;;3.38;1.98;;;;;;;;;;8361648;28;20027;-57
2022/08/23 01:30:51;;;;;;;5.27;1.93;;;;;;;;;;8358626;28;20044;-57
2022/08/23 01:34:51;;;;;;;4.20;2.07;;;;;;;;;;8359193;28;20285;-57
2022/08/23 01:38:51;;;;;;;6.50;2.00;;;;;;;;;;8358501;28;20035;-57
2022/08/23 01:42:52;;;;;;;2.37;1.70;;;;;;;;;;8358224;28;20032;-57
2022/08/23 01:46:52;;;;;;;2.72;1.90;;;;;;;;;;8358084;28;20279;-58
2022/08/23 01:50:53;;;;;;;5.32;1.90;;;;;;;;;;8357118;28;20024;-57
2022/08/23 01:54:54;;;;;;;2.07;1.73;;;;;;;;;;8359847;28;20032;-57
2022/08/23 01:58:54;;;;;;;2.90;2.00;;;;;;;;;;8357527;28;20271;-57
2022/08/23 02:02:55;;;;;;;3.43;2.13;;;;;;;;;;8358401;28;20048;-57
2022/08/23 02:06:55;;;;;;;4.30;2.00;;;;;;;;;;8359629;28;20035;-57
2022/08/23 02:10:56;;;;;;;3.43;2.00;;;;;;;;;;8356677;28;20032;-57
2022/08/23 02:14:56;;;;;;;4.82;2.35;;;;;;;;;;8356204;28;20040;-57
2022/08/23 02:18:56;;;;;;;2.35;1.90;;;;;;;;;;8356498;28;20131;-57
2022/08/23 02:22:57;;;;;;;2.53;1.98;;;;;;;;;;8354501;28;20021;-57
2022/08/23 02:27:00;;;;;;;3.70;1.90;;;;;;;;;;8357020;28;20027;-57
2022/08/23 02:31:00;;;;;;;4.07;1.85;;;;;;;;;;8355554;28;20551;-57
2022/08/23 02:35:00;;;;;;;2.75;1.80;;;;;;;;;;8354539;28;20024;-57
2022/08/23 02:39:01;;;;;;;5.10;2.10;;;;;;;;;;8355868;28;20024;-57
2022/08/23 02:43:01;;;;;;;5.15;1.92;;;;;;;;;;8357472;28;20062;-57
2022/08/23 02:47:01;;;;;;;2.50;1.92;;;;;;;;;;8353605;28;20667;-57
2022/08/23 02:51:04;;;;;;;3.27;2.00;;;;;;;;;;8356561;28;20071;-57
2022/08/23 02:55:04;;;;;;;4.55;1.98;;;;;;;;;;8355430;28;20099;-59
2022/08/23 02:59:06;;;;;;;4.28;2.33;;;;;;;;;;8356177;28;20023;-57
2022/08/23 03:03:06;;;;;;;3.60;2.10;;;;;;;;;;8354616;28;20746;-57
2022/08/23 03:07:06;;;;;;;3.05;1.90;;;;;;;;;;8355828;28;20047;-57
2022/08/23 03:11:11;;;;;;;2.67;2.15;;;;;;;;;;8356561;28;20029;-58
2022/08/23 03:15:12;;;;;;;2.20;2.00;;;;;;;;;;8354432;28;20040;-56
2022/08/23 03:19:12;;;;;;;3.92;2.05;;;;;;;;;;8353667;28;20029;-56
2022/08/23 03:23:13;;;;;;;5.82;2.05;;;;;;;;;;8355691;28;20028;-56
2022/08/23 03:27:13;;;;;;;4.80;2.28;;;;;;;;;;8355789;28;20089;-56
2022/08/23 03:31:15;;;;;;;3.83;2.03;;;;;;;;;;8352260;28;20067;-56
2022/08/23 03:35:16;;;;;;;2.42;1.77;;;;;;;;;;8353605;28;20296;-56
2022/08/23 03:39:16;;;;;;;2.97;2.15;;;;;;;;;;8355410;28;20143;-56
2022/08/23 03:43:17;;;;;;;3.60;2.20;;;;;;;;;;8356502;28;20031;-57
2022/08/23 03:47:17;;;;;;;4.00;2.17;;;;;;;;;;8353394;28;20089;-58
2022/08/23 03:51:18;;;;;;;3.65;2.10;;;;;;;;;;8354183;28;20073;-56
2022/08/23 03:55:18;;;;;;;5.15;2.10;;;;;;;;;;8358218;28;20028;-56
2022/08/23 03:59:19;;;;;;;3.47;2.07;;;;;;;;;;8359755;28;20021;-58
2022/08/23 04:03:19;;;;;;;2.58;1.80;;;;;;;;;;8356353;28;20275;-56
2022/08/23 04:07:20;;;;;;;3.53;1.77;;;;;;;;;;8360928;28;20814;-57
2022/08/23 04:11:21;;;;;;;3.65;1.80;;;;;;;;;;8357767;28;20063;-57
2022/08/23 04:15:23;;;;;;;2.10;1.90;;;;;;;;;;8361242;28;20111;-57
2022/08/23 04:19:24;;;;;;;4.88;1.83;;;;;;;;;;8359221;28;20032;-57
2022/08/23 04:23:26;;;;;;;4.47;1.80;;;;;;;;;;8360532;28;20050;-57
2022/08/23 04:27:26;;;;;;;2.33;1.92;;;;;;;;;;8359449;28;20031;-57
2022/08/23 04:31:27;;;;;;;4.10;1.95;;;;;;;;;;8357585;28;20143;-57
2022/08/23 04:35:27;;;;;;;4.17;1.70;;;;;;;;;;8357613;28;20128;-57
2022/08/23 04:39:27;;;;;;;5.38;2.00;;;;;;;;;;8360041;28;20368;-57
2022/08/23 04:43:28;;;;;;;2.80;1.90;;;;;;;;;;8358558;28;20432;-57
2022/08/23 04:47:28;;;;;;;2.30;1.73;;;;;;;;;;8358938;28;20560;-57
2022/08/23 04:51:29;;;;;;;2.97;1.90;;;;;;;;;;8358618;28;20089;-57
2022/08/23 04:55:30;;;;;;;3.90;2.00;;;;;;;;;;8359275;28;20460;-57
2022/08/23 04:59:30;;;;;;;2.47;1.75;;;;;;;;;;8357405;28;20279;-57
2022/08/23 05:03:33;;;;;;;3.60;1.90;;;;;;;;;;8358470;28;20039;-57
2022/08/23 05:07:34;;;;;;;4.97;2.08;;;;;;;;;;8357625;28;20028;-57
2022/08/23 05:11:34;;;;;;;3.20;1.98;;;;;;;;;;8356091;28;20058;-57
2022/08/23 05:15:34;;;;;;;2.78;1.92;;;;;;;;;;8358567;28;20029;-57
2022/08/23 05:19:35;;;;;;;5.38;2.10;;;;;;;;;;8358563;28;20052;-57
2022/08/23 05:23:35;;;;;;;3.67;2.22;;;;;;;;;;8358772;28;20031;-57
2022/08/23 05:27:35;;;;;;;4.90;2.35;;;;;;;;;;8359364;28;20055;-57
2022/08/23 05:31:36;;;;;;;4.80;1.90;;;;;;;;;;8353803;28;20041;-57
2022/08/23 05:35:37;;;;;;;4.97;2.35;;;;;;;;;;8356891;28;20012;-57
2022/08/23 05:39:38;;;;;;;4.78;1.98;;;;;;;;;;8360193;28;20021;-59
2022/08/23 05:43:38;;;;;;;2.55;1.73;;;;;;;;;;8354877;28;20938;-58
2022/08/23 05:47:39;;;;;;;3.83;1.85;;;;;;;;;;8358515;28;20029;-57
2022/08/23 05:51:41;;;;;;;5.72;2.05;;;;;;;;;;8356590;28;20024;-59
2022/08/23 05:55:41;;;;;;;3.10;2.00;;;;;;;;;;8357473;28;20024;-58
2022/08/23 05:59:41;;;;;;;5.77;2.27;;;;;;;;;;8357838;28;20029;-57
2022/08/23 06:03:42;;;;;;;4.35;2.17;;;;;;;;;;8355764;28;20113;-57
2022/08/23 06:07:42;;;;;;;6.25;2.15;;;;;;;;;;8357604;28;20020;-57
2022/08/23 06:11:43;;;;;;;5.28;2.15;;;;;;;;;;8357187;28;20103;-58
2022/08/23 06:15:43;;;;;;;4.10;2.30;;;;;;;;;;8362659;28;20040;-58
2022/08/23 06:19:44;;;;;;;12.23;3.22;;;;;;;;;;8367601;28;20029;-58
2022/08/23 06:23:46;;;;;;;13.43;2.83;;;;;;;;;;8369435;28;20033;-58
2022/08/23 06:27:46;;;;;;;8.23;2.40;;;;;;;;;;8364289;28;20484;-58
2022/08/23 06:31:48;;;;;;;6.38;2.35;;;;;;;;;;8367284;28;20032;-58
2022/08/23 06:35:49;;;;;;;7.90;2.85;;;;;;;;;;8364871;28;20024;-58
2022/08/23 06:39:49;;;;;;;8.73;2.80;;;;;;;;;;8368966;28;20035;-58
2022/08/23 06:43:50;;;;;;;5.60;2.90;;;;;;;;;;8365355;28;20857;-58
2022/08/23 06:47:50;;;;;;;6.57;2.65;;;;;;;;;;8364773;28;20040;-58
2022/08/23 06:51:51;;;;;;;4.75;2.33;;;;;;;;;;8364432;28;20033;-58
2022/08/23 06:55:51;;;;;;;4.47;2.65;;;;;;;;;;8362414;28;20032;-58
2022/08/23 06:59:51;;;;;;;5.10;2.67;;;;;;;;;;8358723;28;20029;-58
2022/08/23 07:03:55;;;;;;;7.75;2.67;;;;;;;;;;8357872;28;20044;-58
2022/08/23 07:07:55;;;;;;;5.18;2.30;;;;;;;;;;8358490;28;20846;-59
2022/08/23 07:11:55;;;;;;;6.22;2.60;;;;;;;;;;8358048;28;20036;-59
2022/08/23 07:15:59;;;;;;;5.05;2.50;;;;;;;;;;8358224;28;21272;-58
2022/08/23 07:19:59;;;;;;;7.13;2.50;;;;;;;;;;8356676;28;20033;-58
2022/08/23 07:23:59;;;;;;;9.00;2.50;;;;;;;;;;8357574;28;20083;-59
2022/08/23 07:28:00;;;;;;;7.75;2.53;;;;;;;;;;8354528;28;20028;-58
2022/08/23 07:32:01;;;;;;;13.30;2.58;;;;;;;;;;8361077;28;20028;-58
2022/08/23 07:36:02;;;;;;;8.65;2.60;;;;;;;;;;8362343;28;20020;-58
2022/08/23 07:40:03;;;;;;;7.80;2.95;;;;;;;;;;8364753;28;20040;-59
2022/08/23 07:44:04;;;;;;;10.82;3.08;;;;;;;;;;8363977;28;20905;-58
2022/08/23 07:48:05;;;;;;;10.70;2.90;;;;;;;;;;8364107;28;20059;-58
2022/08/23 07:52:06;;;;;;;7.72;2.63;;;;;;;;;;8362994;28;20029;-58
2022/08/23 07:56:08;;;;;;;16.00;2.80;;;;;;;;;;8361225;28;20032;-58
2022/08/23 08:00:08;;;;;;;10.93;2.70;;;;;;;;;;8359135;28;20539;-59
2022/08/23 08:04:09;;;;;;;8.63;2.85;;;;;;;;;;8358743;28;20904;-59
2022/08/23 08:08:09;;;;;;;12.63;2.42;;;;;;;;;;8358259;28;20778;-59
2022/08/23 08:12:10;;;;;;;6.73;2.40;;;;;;;;;;8356582;28;20024;-59
2022/08/23 08:16:18;;;;;;;9.47;2.73;;;;;;;;;;8358020;28;20040;-59
2022/08/23 08:20:19;;;;;;;8.05;2.80;;;;;;;;;;8360259;28;20166;-59
2022/08/23 08:24:19;;;;;;;7.83;2.80;;;;;;;;;;8375981;28;20086;-59
2022/08/23 08:28:19;;;;;;;7.15;2.30;;;;;;;;;;8360439;28;20031;-59
2022/08/23 08:32:19;;;;;;;12.10;2.75;;;;;;;;;;8361217;28;20171;-59
2022/08/23 08:36:40;;;;;;;7.97;2.58;;;;;;;;;;8359125;28;20254;-58
2022/08/23 08:40:40;;;;;;;12.20;2.70;;;;;;;;;;8359473;28;20024;-59
2022/08/23 08:44:41;;;;;;;6.30;2.43;;;;;;;;;;8358638;28;20032;-59
2022/08/23 08:48:43;;;;;;;6.00;2.53;;;;;;;;;;8359710;28;20809;-59
2022/08/23 08:52:46;;;;;;;12.95;2.83;;;;;;;;;;8361059;28;20645;-59
2022/08/23 08:56:49;;;;;;;9.05;2.55;;;;;;;;;;8362675;28;20020;-59
2022/08/23 09:00:50;;;;;;;10.13;2.40;;;;;;;;;;8361036;28;20041;-59
2022/08/23 09:04:50;;;;;;;8.83;2.80;;;;;;;;;;8362684;28;20028;-59
2022/08/23 09:09:05;;;;;;;8.38;2.45;;;;;;;;;;8360677;28;20032;-59
2022/08/23 09:13:18;;;;;;;6.97;2.40;;;;;;;;;;8360801;28;20618;-59
2022/08/23 09:17:22;;;;;;;4.88;2.40;;;;;;;;;;8363934;28;20813;-59
2022/08/23 09:21:22;;;;;;;8.27;2.53;;;;;;;;;;8359520;28;20047;-59
2022/08/23 09:25:23;;;;;;;6.37;2.40;;;;;;;;;;8358063;28;20107;-59
2022/08/23 09:29:23;;;;;;;5.20;2.37;;;;;;;;;;8356569;28;20090;-59
2022/08/23 09:33:26;;;;;;;4.35;2.20;;;;;;;;;;8353182;28;20515;-60
2022/08/23 09:37:26;;;;;;;11.65;2.50;;;;;;;;;;8355434;28;20074;-59
2022/08/23 09:41:30;;;;;;;5.20;2.30;;;;;;;;;;8357326;28;20438;-59
2022/08/23 09:45:37;;;;;;;4.72;2.20;;;;;;;;;;8355868;28;20032;-60
2022/08/23 09:50:00;;;;;;;6.07;2.30;;;;;;;;;;8362918;28;20058;-59
2022/08/23 09:54:01;;;;;;;7.70;2.30;;;;;;;;;;8363279;28;20531;-62
2022/08/23 09:58:03;;;;;;;3.13;2.30;;;;;;;;;;8381843;28;20084;-61
2022/08/23 10:02:07;;;;;;;7.03;2.40;;;;;;;;;;8371982;28;20036;-61
2022/08/23 10:06:09;;;;;;;2.40;2.17;;;;;;;;;;8357836;28;20036;-62
2022/08/23 10:10:18;;;;;;;10.90;2.20;;;;;;;;;;8360544;28;20039;-61
2022/08/23 10:14:20;;;;;;;3.38;2.20;;;;;;;;;;8363565;28;20020;-60
2022/08/23 10:18:27;;;;;;;4.57;2.28;;;;;;;;;;8369478;28;20036;-59
2022/08/23 10:22:35;;;;;;;6.20;2.50;;;;;;;;;;8362962;28;20024;-59
2022/08/23 10:26:38;;;;;;;4.72;2.60;;;;;;;;;;8371422;28;20062;-59
2022/08/23 10:30:38;;;;;;;4.95;2.40;;;;;;;;;;8367270;28;20032;-59
2022/08/23 10:34:42;;;;;;;5.82;2.42;;;;;;;;;;8368700;28;20144;-59
2022/08/23 10:38:49;;;;;;;5.85;2.97;;;;;;;;;;8362655;28;20016;-59
2022/08/23 10:43:02;;;;;;;5.43;2.55;;;;;;;;;;8367038;28;20039;-59
2022/08/23 10:47:32;;;;;;;4.60;2.40;;;;;;;;;;8371261;28;20048;-59
2022/08/23 10:51:35;;;;;;;5.32;2.40;;;;;;;;;;8371863;28;20086;-59
2022/08/23 10:55:53;;;;;;;4.97;2.65;;;;;;;;;;8380390;28;20166;-59
2022/08/23 10:59:54;;;;;;;5.30;2.40;;;;;;;;;;8373816;28;20498;-59
2022/08/23 11:04:01;;;;;;;4.97;2.40;;;;;;;;;;8375024;28;20115;-59
2022/08/23 11:08:28;;;;;;;4.95;2.50;;;;;;;;;;8381771;28;20931;-59
2022/08/23 11:12:30;;;;;;;3.80;2.50;;;;;;;;;;8378677;28;20032;-60
2022/08/23 11:16:31;;;;;;;3.80;2.40;;;;;;;;;;8382661;28;20086;-59
2022/08/23 11:20:49;;;;;;;4.33;2.50;;;;;;;;;;8376226;28;20032;-59
2022/08/23 11:25:09;;;;;;;6.72;2.50;;;;;;;;;;8384574;28;20110;-60
2022/08/23 11:29:30;;;;;;;4.85;2.50;;;;;;;;;;8373337;28;20038;-59
2022/08/23 11:33:34;;;;;;;3.88;2.30;;;;;;;;;;8378861;28;20043;-59
2022/08/23 11:37:53;;;;;;;3.88;2.30;;;;;;;;;;8380689;28;20035;-59
2022/08/23 11:41:54;;;;;;;3.92;2.50;;;;;;;;;;8379457;28;20825;-60
2022/08/23 11:46:13;;;;;;;3.65;2.40;;;;;;;;;;8382190;28;20082;-59
2022/08/23 11:50:13;;;;;;;8.40;2.70;;;;;;;;;;8385419;28;20221;-59
2022/08/23 11:54:34;;;;;;;4.28;2.00;;;;;;;;;;8386343;28;20032;-59
2022/08/23 11:58:49;;;;;;;2.97;2.00;;;;;;;;;;8380803;28;20021;-60
2022/08/23 12:03:00;;;;;;;3.53;2.20;;;;;;;;;;8373092;28;20059;-59
2022/08/23 12:07:02;;;;;;;3.13;2.20;;;;;;;;;;8372389;28;20062;-59
2022/08/23 12:11:05;;;;;;;2.88;1.90;;;;;;;;;;8362377;28;20730;-59
2022/08/23 12:15:07;;;;;;;3.63;2.40;;;;;;;;;;8366901;28;20028;-60
2022/08/23 12:19:07;;;;;;;;;;;;;;;;;;8375591;28;20116;-59
2022/08/23 12:23:13;;;;;;;3.65;2.30;;;;;;;;;;8361964;28;20478;-59
2022/08/23 12:27:32;;;;;;;2.95;2.10;;;;;;;;;;8364257;28;20087;-59
2022/08/23 12:31:50;;;;;;;5.80;2.20;;;;;;;;;;8358077;28;20536;-59
2022/08/23 12:36:00;;;;;;;3.80;2.22;;;;;;;;;;8355678;28;20345;-59
2022/08/23 12:40:06;;;;;;;4.50;2.20;;;;;;;;;;8352742;28;20130;-59
2022/08/23 12:44:08;;;;;;;5.85;2.17;;;;;;;;;;8353308;28;20096;-59
2022/08/23 12:48:10;;;;;;;3.55;2.13;;;;;;;;;;8350937;28;20036;-59
2022/08/23 12:52:11;;;;;;;3.00;2.13;;;;;;;;;;8349698;28;20028;-59
2022/08/23 12:56:23;;;;;;;3.50;2.40;;;;;;;;;;8356137;28;20017;-59
2022/08/23 13:00:23;;;;;;;;;;;;;;;;;;8352197;28;20289;-59
2022/08/23 13:04:23;;;;;;;5.88;2.30;;;;;;;;;;8362716;28;19918;-59
2022/08/23 13:08:25;;;;;;;3.08;2.20;;;;;;;;;;8372260;28;20052;-61
2022/08/23 13:12:26;;;;;;;4.97;2.45;;;;;;;;;;8371051;28;20028;-61
2022/08/23 13:16:26;;;;;;;5.80;2.20;;;;;;;;;;8356372;28;20497;-59
2022/08/23 13:20:27;;;;;;;2.10;1.87;;;;;;;;;;8361147;28;20209;-59
2022/08/23 13:24:34;;;;;;;4.97;2.45;;;;;;;;;;8359943;28;20036;-59
2022/08/23 13:28:35;;;;;;;6.13;2.35;;;;;;;;;;8348676;28;20491;-59
2022/08/23 13:32:43;;;;;;;4.03;2.08;;;;;;;;;;8348682;28;20499;-60
2022/08/23 13:36:43;;;;;;;6.13;2.35;;;;;;;;;;8352481;28;20055;-59
2022/08/23 13:40:53;;;;;;;3.47;2.17;;;;;;;;;;8352419;28;20024;-59
2022/08/23 13:44:53;;;;;;;2.65;2.10;;;;;;;;;;8351381;28;20039;-60
2022/08/23 13:48:53;;;;;;;6.13;2.23;;;;;;;;;;8353482;28;20044;-60
2022/08/23 13:52:54;;;;;;;3.05;2.30;;;;;;;;;;8347458;28;20048;-64
2022/08/23 13:56:56;;;;;;;2.97;2.13;;;;;;;;;;8349982;28;20143;-61
2022/08/23 14:00:57;;;;;;;2.63;2.10;;;;;;;;;;8354022;28;21287;-59
2022/08/23 14:04:57;;;;;;;2.60;2.23;;;;;;;;;;8353344;28;20119;-59
2022/08/23 14:08:57;;;;;;;5.57;2.10;;;;;;;;;;8356794;28;20480;-59
2022/08/23 14:13:00;;;;;;;2.95;2.10;;;;;;;;;;8358286;28;20044;-60
2022/08/23 14:17:01;;;;;;;4.43;2.20;;;;;;;;;;8358622;28;20058;-59
2022/08/23 14:21:02;;;;;;;2.72;2.03;;;;;;;;;;8353082;28;20028;-59
2022/08/23 14:25:03;;;;;;;3.70;2.08;;;;;;;;;;8356308;28;20134;-59
2022/08/23 14:29:03;;;;;;;6.10;2.38;;;;;;;;;;8352321;28;20135;-59
2022/08/23 14:33:04;;;;;;;5.35;2.35;;;;;;;;;;8353843;28;20482;-59
2022/08/23 14:37:04;;;;;;;3.80;2.03;;;;;;;;;;8355722;28;20402;-60
2022/08/23 14:41:06;;;;;;;5.30;2.30;;;;;;;;;;8353812;28;20296;-59
2022/08/23 14:45:07;;;;;;;4.13;2.10;;;;;;;;;;8352625;28;20020;-60
2022/08/23 14:49:07;;;;;;;3.00;2.03;;;;;;;;;;8361562;28;20161;-60
2022/08/23 14:53:08;;;;;;;2.45;2.03;;;;;;;;;;8384008;28;20066;-60
2022/08/23 14:57:09;;;;;;;3.15;2.10;;;;;;;;;;8377045;28;20016;-61
2022/08/23 15:01:10;;;;;;;3.92;2.40;;;;;;;;;;8377357;28;20139;-60
2022/08/23 15:05:11;;;;;;;3.03;2.22;;;;;;;;;;8377231;28;20032;-61
2022/08/23 15:09:12;;;;;;;5.30;2.50;;;;;;;;;;8382673;28;20032;-60
2022/08/23 15:13:20;;;;;;;3.25;2.47;;;;;;;;;;8390693;28;20148;-60
2022/08/23 15:17:20;;;;;;;3.70;2.30;;;;;;;;;;8390634;28;20028;-60
2022/08/23 15:21:21;;;;;;;2.97;1.98;;;;;;;;;;8400840;28;20059;-61
2022/08/23 15:25:24;;;;;;;4.65;2.60;;;;;;;;;;8400551;28;20032;-60
2022/08/23 15:29:25;;;;;;;5.28;2.40;;;;;;;;;;8399609;28;20020;-61
2022/08/23 15:33:26;;;;;;;5.00;2.40;;;;;;;;;;8378120;28;20219;-59
2022/08/23 15:37:26;;;;;;;5.35;2.35;;;;;;;;;;8379213;28;20496;-60
2022/08/23 15:41:27;;;;;;;3.65;2.25;;;;;;;;;;8385202;28;20098;-60
2022/08/23 15:45:35;;;;;;;7.50;2.40;;;;;;;;;;8388175;28;20033;-60
2022/08/23 15:49:36;;;;;;;4.03;2.17;;;;;;;;;;8381847;28;20278;-67
2022/08/23 15:53:41;;;;;;;2.88;2.05;;;;;;;;;;8391620;28;20028;-61
2022/08/23 15:57:46;;;;;;;4.05;2.13;;;;;;;;;;8396625;28;20386;-60
2022/08/23 16:01:49;;;;;;;2.97;2.03;;;;;;;;;;8392492;28;20133;-60
2022/08/23 16:05:49;;;;;;;;;;;;;;;;;;8388496;28;20055;-60
2022/08/23 16:09:49;;;;;;;4.53;2.10;;;;;;;;;;8390013;28;19908;-60
2022/08/23 16:13:50;;;;;;;2.28;2.08;;;;;;;;;;8388497;28;20033;-60
2022/08/23 16:17:50;;;;;;;3.88;2.05;;;;;;;;;;8381367;28;20534;-60
2022/08/23 16:21:52;;;;;;;3.55;2.30;;;;;;;;;;8394179;28;20037;-60
2022/08/23 16:25:52;;;;;;;3.83;1.90;;;;;;;;;;8393709;28;20028;-60
2022/08/23 16:29:52;;;;;;;2.40;2.03;;;;;;;;;;8392535;28;20093;-60
2022/08/23 16:33:52;;;;;;;3.95;2.03;;;;;;;;;;8384907;28;20040;-60
2022/08/23 16:37:53;;;;;;;2.33;2.13;;;;;;;;;;8390802;28;20040;-60
2022/08/23 16:41:54;;;;;;;2.90;2.00;;;;;;;;;;8387929;28;20028;-60
2022/08/23 16:45:54;;;;;;;2.55;2.03;;;;;;;;;;8391102;28;20162;-60
2022/08/23 16:49:54;;;;;;;2.42;2.13;;;;;;;;;;8377000;28;20024;-60
2022/08/23 16:53:54;;;;;;;2.45;2.08;;;;;;;;;;8368054;28;20963;-59
2022/08/23 16:57:54;;;;;;;3.38;2.10;;;;;;;;;;8368247;28;20031;-60
2022/08/23 17:01:57;;;;;;;1.92;1.80;;;;;;;;;;8369422;28;20673;-60
2022/08/23 17:05:57;;;;;;;2.20;1.98;;;;;;;;;;8361287;28;20075;-60
2022/08/23 17:09:57;;;;;;;4.88;2.20;;;;;;;;;;8369498;28;20067;-58
2022/08/23 17:14:00;;;;;;;4.18;2.22;;;;;;;;;;8375061;28;20024;-58
2022/08/23 17:18:00;;;;;;;4.35;1.92;;;;;;;;;;8376715;28;20033;-58
2022/08/23 17:22:01;;;;;;;2.58;2.13;;;;;;;;;;8376669;28;20029;-58
2022/08/23 17:26:01;;;;;;;3.20;1.90;;;;;;;;;;8375220;28;20633;-58
2022/08/23 17:30:03;;;;;;;3.35;2.08;;;;;;;;;;8375712;28;20672;-58
2022/08/23 17:34:10;;;;;;;3.08;2.13;;;;;;;;;;8371698;28;20202;-58
2022/08/23 17:38:10;;;;;;;2.67;2.20;;;;;;;;;;8368417;28;20024;-58
2022/08/23 17:42:12;;;;;;;2.70;2.00;;;;;;;;;;8364177;28;20044;-58
2022/08/23 17:46:12;;;;;;;2.08;1.90;;;;;;;;;;8365456;28;20548;-58
2022/08/23 17:50:13;;;;;;;2.57;1.87;;;;;;;;;;8365121;28;20125;-58
2022/08/23 17:54:13;;;;;;;2.15;1.80;;;;;;;;;;8368174;28;20032;-58
2022/08/23 17:58:16;;;;;;;7.20;2.07;;;;;;;;;;8365779;28;20021;-58
2022/08/23 18:02:16;;;;;;;3.35;1.90;;;;;;;;;;8362587;28;20036;-58
2022/08/23 18:06:17;;;;;;;2.10;1.90;;;;;;;;;;8362995;28;20094;-58
2022/08/23 18:10:17;;;;;;;2.33;1.80;;;;;;;;;;8360079;28;20036;-58
2022/08/23 18:14:17;;;;;;;3.58;2.08;;;;;;;;;;8356482;28;20071;-58
2022/08/23 18:18:17;;;;;;;2.95;1.75;;;;;;;;;;8349473;28;20213;-58
2022/08/23 18:22:18;;;;;;;3.58;1.75;;;;;;;;;;8350281;28;20039;-58
2022/08/23 18:30:55;;;;;;;2.20;1.90;;;;;;;;;;8309454;28;20039;-58
2022/08/23 18:34:55;;;;;;;2.70;2.10;;;;;;;;;;8362649;28;20028;-58
2022/08/23 18:39:18;;;;;;;2.42;1.90;;;;;;;;;;8378881;28;20326;-58
2022/08/23 18:43:23;;;;;;;3.20;1.70;;;;;;;;;;8364445;28;20032;-58
2022/08/23 18:47:25;;;;;;;2.75;1.77;;;;;;;;;;8358197;28;20044;-58
2022/08/23 18:51:25;;;;;;;3.70;2.17;;;;;;;;;;8355731;28;20021;-58
2022/08/23 18:55:26;;;;;;;2.88;2.05;;;;;;;;;;8358876;28;20047;-57
2022/08/23 18:59:26;;;;;;;3.42;1.90;;;;;;;;;;8357649;28;20024;-58
2022/08/23 19:03:27;;;;;;;2.17;1.90;;;;;;;;;;8358255;28;20032;-58
2022/08/23 19:07:27;;;;;;;4.22;2.10;;;;;;;;;;8359716;28;20020;-58
2022/08/23 19:11:28;;;;;;;2.13;1.92;;;;;;;;;;8357043;28;20048;-58
2022/08/23 19:15:28;;;;;;;2.35;1.92;;;;;;;;;;8353536;28;20045;-60
2022/08/23 19:19:29;;;;;;;6.80;2.10;;;;;;;;;;8354866;28;20100;-58
2022/08/23 19:23:30;;;;;;;2.60;1.90;;;;;;;;;;8354021;28;20029;-58
2022/08/23 19:27:30;;;;;;;6.75;1.85;;;;;;;;;;8363358;28;20024;-58
2022/08/23 19:31:30;;;;;;;3.17;1.88;;;;;;;;;;8360243;28;20048;-58
2022/08/23 19:35:30;;;;;;;3.73;2.10;;;;;;;;;;8361892;28;20895;-57
2022/08/23 19:39:31;;;;;;;2.70;1.97;;;;;;;;;;8361275;28;20024;-58
2022/08/23 19:43:31;;;;;;;2.10;1.90;;;;;;;;;;8361723;28;20099;-58
2022/08/23 19:47:31;;;;;;;2.88;2.10;;;;;;;;;;8361509;28;20097;-58
2022/08/23 19:51:32;;;;;;;3.80;1.70;;;;;;;;;;8367601;28;20043;-58
2022/08/23 19:55:33;;;;;;;4.45;2.00;;;;;;;;;;8361849;28;20101;-58
2022/08/23 19:59:34;;;;;;;4.38;2.22;;;;;;;;;;8361856;28;20046;-58
2022/08/23 20:03:35;;;;;;;2.83;1.90;;;;;;;;;;8358141;28;20039;-58
2022/08/23 20:07:36;;;;;;;2.35;2.08;;;;;;;;;;8356587;28;20028;-58
2022/08/23 20:11:37;;;;;;;4.18;1.95;;;;;;;;;;8362914;28;20151;-58
2022/08/23 20:15:38;;;;;;;2.28;2.05;;;;;;;;;;8362404;28;20040;-58
2022/08/23 20:19:40;;;;;;;3.47;1.95;;;;;;;;;;8363718;28;20094;-57
2022/08/23 20:28:03;;;;;;;2.17;1.98;;;;;;;;;;8362592;28;20793;-58
2022/08/23 20:32:05;;;;;;;2.08;1.67;;;;;;;;;;8360500;28;20055;-57
2022/08/23 20:36:05;;;;;;;3.08;2.15;;;;;;;;;;8360202;28;20029;-58
2022/08/23 20:40:08;;;;;;;2.60;1.92;;;;;;;;;;8362218;28;20024;-58
2022/08/23 20:44:09;;;;;;;;;;;;;;;;;;8360984;28;20930;-58
2022/08/23 20:48:09;;;;;;;1.92;1.77;;;;;;;;;;8365466;28;19920;-59
2022/08/23 20:52:09;;;;;;;3.90;2.20;;;;;;;;;;8360831;28;20670;-58
2022/08/23 20:56:10;;;;;;;3.30;2.17;;;;;;;;;;8363302;28;20081;-59
2022/08/23 21:00:10;;;;;;;2.38;1.73;;;;;;;;;;8362707;28;20525;-58
2022/08/23 21:04:11;;;;;;;2.00;1.90;;;;;;;;;;8367218;28;20451;-58
2022/08/23 21:08:12;;;;;;;2.55;1.67;;;;;;;;;;8367578;28;20043;-58
2022/08/23 21:12:12;;;;;;;3.17;2.00;;;;;;;;;;8365121;28;20028;-58
2022/08/23 21:16:14;;;;;;;5.28;2.08;;;;;;;;;;8366739;28;20025;-58
2022/08/23 21:20:14;;;;;;;2.33;2.05;;;;;;;;;;8362636;28;20028;-58
2022/08/23 21:24:15;;;;;;;2.95;2.08;;;;;;;;;;8364437;28;20084;-58
2022/08/23 21:28:15;;;;;;;3.10;2.03;;;;;;;;;;8361878;28;20020;-58
2022/08/23 21:32:16;;;;;;;3.30;1.92;;;;;;;;;;8357328;28;20040;-58
2022/08/23 21:36:17;;;;;;;3.70;1.92;;;;;;;;;;8358122;28;20601;-58
2022/08/23 21:40:19;;;;;;;4.32;2.05;;;;;;;;;;8357920;28;20578;-58
2022/08/23 21:44:19;;;;;;;1.85;1.63;;;;;;;;;;8361863;28;20019;-58
2022/08/23 21:48:20;;;;;;;2.25;1.80;;;;;;;;;;8360515;28;20082;-58
2022/08/23 21:52:20;;;;;;;5.23;1.97;;;;;;;;;;8362321;28;20024;-58
2022/08/23 21:56:20;;;;;;;1.97;1.70;;;;;;;;;;8361141;28;20347;-58
2022/08/23 22:00:21;;;;;;;2.42;1.77;;;;;;;;;;8361584;28;20013;-58
2022/08/23 22:04:21;;;;;;;3.92;1.73;;;;;;;;;;8364282;28;20024;-58
2022/08/23 22:08:21;;;;;;;3.55;1.80;;;;;;;;;;8361939;28;20024;-58
2022/08/23 22:12:22;;;;;;;2.03;1.77;;;;;;;;;;8360961;28;20119;-58
2022/08/23 22:16:23;;;;;;;3.78;1.73;;;;;;;;;;8363096;28;20104;-58
2022/08/23 22:20:23;;;;;;;2.78;1.67;;;;;;;;;;8353238;28;20024;-58
2022/08/23 22:24:23;;;;;;;3.10;1.80;;;;;;;;;;8360141;28;20020;-58
2022/08/23 22:28:24;;;;;;;3.83;2.10;;;;;;;;;;8356110;28;20389;-58
2022/08/23 22:32:24;;;;;;;2.70;1.67;;;;;;;;;;8354865;28;20097;-58
2022/08/23 22:36:25;;;;;;;2.92;1.83;;;;;;;;;;8353953;28;20336;-58
2022/08/23 22:40:25;;;;;;;3.00;2.40;;;;;;;;;;8359550;28;20094;-58
2022/08/23 22:44:27;;;;;;;4.35;2.33;;;;;;;;;;8356896;28;20024;-58
2022/08/23 22:48:29;;;;;;;4.05;2.38;;;;;;;;;;8359181;28;20036;-58
2022/08/23 22:52:29;;;;;;;6.63;2.30;;;;;;;;;;8357878;28;20397;-58
2022/08/23 22:56:32;;;;;;;4.45;2.20;;;;;;;;;;8360716;28;20031;-58
2022/08/23 23:00:32;;;;;;;2.95;2.17;;;;;;;;;;8356997;28;20102;-58
2022/08/23 23:04:33;;;;;;;3.90;2.20;;;;;;;;;;8356692;28;20049;-57
2022/08/23 23:08:33;;;;;;;3.35;2.00;;;;;;;;;;8356632;28;20025;-58
2022/08/23 23:12:33;;;;;;;2.97;1.95;;;;;;;;;;8355107;28;20540;-58
2022/08/23 23:16:34;;;;;;;2.83;1.90;;;;;;;;;;8358934;28;20029;-58
2022/08/23 23:20:38;;;;;;;2.30;2.10;;;;;;;;;;8357500;28;20081;-58
2022/08/23 23:24:38;;;;;;;2.10;1.88;;;;;;;;;;8360800;28;20040;-58
2022/08/23 23:28:39;;;;;;;3.22;2.00;;;;;;;;;;8359862;28;20416;-58
2022/08/23 23:32:40;;;;;;;2.83;1.80;;;;;;;;;;8358060;28;20142;-58
2022/08/23 23:36:40;;;;;;;2.80;1.80;;;;;;;;;;8351412;28;20031;-58
2022/08/23 23:40:41;;;;;;;3.47;2.10;;;;;;;;;;8353018;28;20021;-57
2022/08/23 23:44:41;;;;;;;3.42;2.13;;;;;;;;;;8354051;28;20036;-58
2022/08/23 23:48:42;;;;;;;2.85;2.03;;;;;;;;;;8358289;28;20151;-58
2022/08/23 23:52:44;;;;;;;3.70;1.70;;;;;;;;;;8355557;28;20273;-58
2022/08/23 23:56:44;;;;;;;2.10;1.60;;;;;;;;;;8362277;28;20028;-58
